Time;durP1;ratioP1;P1;durP2;ratioP2;P2;SDS_P1;SDS_P2;PMS_P1;PMS_P2;Temp;Humidity;BMP_temperature;BMP_pressure;BME280_temperature;BME280_humidity;BME280_pressure;Samples;Min_cycle;Max_cycle;Signal;HPM_P1;HPM_P2
2023/01/31 00:01:20;;;;;;;0.60;0.60;;;2.30;99.90;;;;;;5053606;28;20663;-68
2023/01/31 00:03:47;;;;;;;1.67;1.67;;;2.40;99.90;;;;;;5054892;28;20594;-68
2023/01/31 00:06:16;;;;;;;0.75;0.75;;;2.30;99.90;;;;;;5054955;28;20163;-68
2023/01/31 00:08:42;;;;;;;1.60;1.23;;;2.20;99.90;;;;;;5054906;28;20209;-68
2023/01/31 00:11:09;;;;;;;0.73;0.73;;;2.20;99.90;;;;;;5054740;28;20239;-68
2023/01/31 00:13:35;;;;;;;0.93;0.70;;;2.10;99.90;;;;;;5054779;28;20269;-68
2023/01/31 00:16:01;;;;;;;0.40;0.40;;;2.10;99.90;;;;;;5054896;28;20205;-68
2023/01/31 00:18:27;;;;;;;0.35;0.35;;;2.00;99.90;;;;;;5054852;28;20205;-68
2023/01/31 00:20:52;;;;;;;0.40;0.40;;;2.00;99.90;;;;;;5054578;28;20690;-68
2023/01/31 00:23:18;;;;;;;0.30;0.30;;;2.00;99.90;;;;;;5054498;28;20176;-68
2023/01/31 00:25:44;;;;;;;0.40;0.40;;;2.10;99.90;;;;;;5054719;28;20176;-68
2023/01/31 00:28:09;;;;;;;0.37;0.37;;;2.00;99.90;;;;;;5054708;28;20169;-68
2023/01/31 00:30:35;;;;;;;0.43;0.43;;;1.90;99.90;;;;;;5054450;28;20228;-68
2023/01/31 00:33:01;;;;;;;2.37;1.37;;;1.80;99.90;;;;;;5054315;28;20177;-68
2023/01/31 00:35:27;;;;;;;0.65;0.65;;;1.80;99.90;;;;;;5054373;28;20197;-68
2023/01/31 00:37:53;;;;;;;0.30;0.30;;;1.70;99.90;;;;;;5054500;28;20252;-68
2023/01/31 00:40:19;;;;;;;0.30;0.30;;;1.80;99.90;;;;;;5054235;28;20439;-68
2023/01/31 00:42:44;;;;;;;0.30;0.30;;;1.70;99.90;;;;;;5054028;28;20236;-68
2023/01/31 00:45:10;;;;;;;0.30;0.30;;;1.70;99.90;;;;;;5054276;28;20246;-68
2023/01/31 00:47:36;;;;;;;0.40;0.40;;;1.60;99.90;;;;;;5054261;28;20173;-68
2023/01/31 00:50:02;;;;;;;0.60;0.60;;;1.50;99.90;;;;;;5054097;28;20259;-68
2023/01/31 00:52:28;;;;;;;1.02;1.02;;;1.50;99.90;;;;;;5053853;28;20630;-68
2023/01/31 00:54:53;;;;;;;0.30;0.30;;;1.50;99.90;;;;;;5054210;28;20183;-68
2023/01/31 00:57:19;;;;;;;0.40;0.40;;;1.60;99.90;;;;;;5054085;28;20177;-68
2023/01/31 00:59:44;;;;;;;0.40;0.40;;;1.60;99.90;;;;;;5054023;28;20219;-68
2023/01/31 01:02:10;;;;;;;0.40;0.40;;;1.70;99.90;;;;;;5053952;28;20523;-68
2023/01/31 01:04:36;;;;;;;0.50;0.50;;;1.70;99.90;;;;;;5054035;28;20645;-68
2023/01/31 01:07:01;;;;;;;1.13;1.13;;;1.70;99.90;;;;;;5053914;28;20170;-68
2023/01/31 01:09:27;;;;;;;0.30;0.30;;;2.40;99.90;;;;;;5053440;28;20560;-68
2023/01/31 01:11:53;;;;;;;2.40;1.03;;;1.90;99.90;;;;;;5053618;28;20256;-68
2023/01/31 01:14:19;;;;;;;0.30;0.30;;;1.90;99.90;;;;;;5053832;28;20177;-68
2023/01/31 01:16:44;;;;;;;0.40;0.40;;;2.00;99.90;;;;;;5053646;28;20633;-68
2023/01/31 01:19:17;;;;;;;0.30;0.30;;;2.10;99.90;;;;;;5053544;28;20292;-68
2023/01/31 01:21:43;;;;;;;0.60;0.60;;;2.20;99.90;;;;;;5053436;28;20687;-68
2023/01/31 01:24:15;;;;;;;1.15;1.15;;;2.20;99.90;;;;;;5053668;28;20178;-68
2023/01/31 01:26:41;;;;;;;1.23;1.23;;;2.30;99.90;;;;;;5053678;28;20162;-68
2023/01/31 01:29:07;;;;;;;0.40;0.40;;;2.30;99.90;;;;;;5053653;28;20180;-68
2023/01/31 01:31:33;;;;;;;0.38;0.38;;;2.30;99.90;;;;;;5053395;28;20592;-68
2023/01/31 01:34:10;;;;;;;1.43;1.43;;;2.30;99.90;;;;;;5053315;28;20209;-68
2023/01/31 01:36:36;;;;;;;0.40;0.40;;;2.40;99.90;;;;;;5053568;28;20227;-69
2023/01/31 01:39:04;;;;;;;0.40;0.40;;;2.40;99.90;;;;;;5053472;28;20213;-68
2023/01/31 01:41:34;;;;;;;0.77;0.77;;;2.30;99.90;;;;;;5053428;28;20424;-68
2023/01/31 01:44:02;;;;;;;0.30;0.30;;;2.30;99.80;;;;;;5053180;28;20178;-68
2023/01/31 01:46:35;;;;;;;1.45;1.30;;;2.30;99.70;;;;;;5053378;28;20218;-68
2023/01/31 01:49:16;;;;;;;0.77;0.70;;;2.20;99.80;;;;;;5053887;28;20201;-68
2023/01/31 01:51:42;;;;;;;1.15;1.15;;;2.20;99.70;;;;;;5053055;28;20188;-68
2023/01/31 01:54:20;;;;;;;1.30;1.30;;;2.10;99.70;;;;;;5053707;28;20544;-68
2023/01/31 01:56:50;;;;;;;0.40;0.40;;;2.10;99.60;;;;;;5053341;28;20177;-68
2023/01/31 01:59:19;;;;;;;2.05;1.95;;;2.00;99.60;;;;;;5053517;28;20799;-68
2023/01/31 02:01:47;;;;;;;0.77;0.77;;;2.00;99.40;;;;;;5053036;28;20173;-68
2023/01/31 02:04:20;;;;;;;0.38;0.38;;;2.00;99.10;;;;;;5053089;28;20176;-68
2023/01/31 02:06:46;;;;;;;0.77;0.60;;;2.00;98.80;;;;;;5053381;28;20164;-68
2023/01/31 02:09:41;;;;;;;0.30;0.30;;;1.80;98.80;;;;;;5053339;28;20180;-68
2023/01/31 02:12:08;;;;;;;0.30;0.30;;;1.70;98.40;;;;;;5052963;28;20159;-68
2023/01/31 02:14:35;;;;;;;0.50;0.50;;;1.50;98.50;;;;;;5053207;28;20255;-68
2023/01/31 02:17:01;;;;;;;0.70;0.70;;;1.30;98.70;;;;;;5053046;28;20499;-68
2023/01/31 02:19:39;;;;;;;0.30;0.30;;;1.00;99.90;;;;;;5052912;28;20209;-68
2023/01/31 02:22:28;;;;;;;0.38;0.38;;;1.10;99.60;;;;;;5056916;28;20155;-68
2023/01/31 02:25:21;;;;;;;0.30;0.30;;;1.10;99.70;;;;;;5056164;28;20199;-68
2023/01/31 02:28:19;;;;;;;1.10;1.10;;;1.20;99.90;;;;;;5056834;28;20164;-68
2023/01/31 02:30:58;;;;;;;0.95;0.95;;;1.20;99.90;;;;;;5056994;28;20188;-68
2023/01/31 02:33:37;;;;;;;0.85;0.85;;;1.30;99.90;;;;;;5056511;28;20165;-68
2023/01/31 02:36:30;;;;;;;0.73;0.73;;;1.40;99.90;;;;;;5056903;28;20212;-68
2023/01/31 02:39:14;;;;;;;0.40;0.40;;;1.50;99.90;;;;;;5056554;28;20291;-68
2023/01/31 02:41:49;;;;;;;0.40;0.40;;;1.40;99.90;;;;;;5056622;28;20539;-68
2023/01/31 02:47:41;;;;;;;0.63;0.63;;;1.50;99.90;;;;;;5056577;28;20180;-68
2023/01/31 02:50:31;;;;;;;0.40;0.40;;;1.50;99.90;;;;;;5056177;28;20221;-68
2023/01/31 02:53:12;;;;;;;0.32;0.32;;;1.60;99.90;;;;;;5056355;28;20179;-68
2023/01/31 02:58:29;;;;;;;0.30;0.30;;;1.40;99.70;;;;;;5056139;28;20205;-68
2023/01/31 03:00:58;;;;;;;0.77;0.77;;;1.30;99.30;;;;;;5056287;28;20241;-68
2023/01/31 03:03:29;;;;;;;0.30;0.30;;;1.20;98.80;;;;;;5056059;28;20174;-68
2023/01/31 03:06:08;;;;;;;0.40;0.40;;;1.10;98.60;;;;;;5056341;28;20252;-68
2023/01/31 03:08:34;;;;;;;0.35;0.35;;;0.90;98.20;;;;;;5056034;28;20168;-68
2023/01/31 03:11:04;;;;;;;0.30;0.30;;;0.70;98.10;;;;;;5055947;28;20206;-68
2023/01/31 03:13:53;;;;;;;0.50;0.50;;;0.50;98.00;;;;;;5055993;28;20422;-68
2023/01/31 03:19:30;;;;;;;0.40;0.40;;;0.70;98.80;;;;;;5056402;28;20207;-68
2023/01/31 03:22:04;;;;;;;1.30;1.20;;;0.70;98.90;;;;;;5055662;28;20155;-68
2023/01/31 03:24:30;;;;;;;0.30;0.30;;;0.70;99.10;;;;;;5055823;28;20644;-68
2023/01/31 03:26:58;;;;;;;1.02;1.02;;;0.90;99.20;;;;;;5055759;28;20204;-68
2023/01/31 03:29:28;;;;;;;0.40;0.40;;;0.80;99.90;;;;;;5055786;28;20179;-68
2023/01/31 03:32:02;;;;;;;0.30;0.30;;;0.90;98.80;;;;;;5055271;28;20174;-68
2023/01/31 03:34:28;;;;;;;0.40;0.40;;;0.90;98.80;;;;;;5055831;28;20644;-68
2023/01/31 03:37:18;;;;;;;0.82;0.73;;;0.90;99.10;;;;;;5055498;28;20194;-68
2023/01/31 03:39:52;;;;;;;0.30;0.30;;;0.90;99.00;;;;;;5055517;28;20195;-68
2023/01/31 03:42:56;;;;;;;0.30;0.30;;;0.90;98.90;;;;;;5055274;28;20542;-68
2023/01/31 03:45:41;;;;;;;0.30;0.30;;;0.90;98.80;;;;;;5055440;28;20167;-68
2023/01/31 03:48:13;;;;;;;1.50;1.50;;;0.90;98.80;;;;;;5055582;28;20189;-68
2023/01/31 03:50:48;;;;;;;0.40;0.40;;;0.90;98.30;;;;;;5055282;28;20283;-68
2023/01/31 03:53:19;;;;;;;0.30;0.30;;;0.90;98.40;;;;;;5055121;28;20326;-68
2023/01/31 03:55:55;;;;;;;0.30;0.30;;;0.90;98.10;;;;;;5055243;28;20167;-68
2023/01/31 03:58:26;;;;;;;0.30;0.30;;;0.90;97.60;;;;;;5055282;28;20194;-68
2023/01/31 04:00:53;;;;;;;0.30;0.30;;;0.70;97.00;;;;;;5055330;28;20569;-68
2023/01/31 04:03:53;;;;;;;0.30;0.30;;;0.50;96.70;;;;;;5054816;28;20686;-68
2023/01/31 04:06:18;;;;;;;0.30;0.30;;;0.30;97.00;;;;;;5054678;28;20179;-68
2023/01/31 04:08:44;;;;;;;0.40;0.40;;;0.10;97.10;;;;;;5055042;28;20178;-68
2023/01/31 04:11:12;;;;;;;0.40;0.40;;;0.00;97.50;;;;;;5054957;28;20425;-68
2023/01/31 04:13:38;;;;;;;0.30;0.30;;;-0.10;97.90;;;;;;5054618;28;20182;-67
2023/01/31 04:16:04;;;;;;;0.73;0.73;;;-0.10;98.10;;;;;;5054599;28;20178;-68
2023/01/31 04:18:30;;;;;;;0.30;0.30;;;-0.10;98.10;;;;;;5054699;28;20205;-68
2023/01/31 04:20:56;;;;;;;0.40;0.40;;;-0.20;97.40;;;;;;5054722;28;20456;-68
2023/01/31 04:23:23;;;;;;;0.30;0.30;;;-0.30;97.10;;;;;;5054510;28;20254;-67
2023/01/31 04:25:51;;;;;;;0.30;0.30;;;-0.50;97.10;;;;;;5054589;28;20166;-67
2023/01/31 04:28:17;;;;;;;0.30;0.30;;;-0.60;97.10;;;;;;5054725;28;20523;-68
2023/01/31 04:30:42;;;;;;;0.30;0.30;;;-0.60;97.10;;;;;;5054413;28;20243;-68
2023/01/31 04:33:08;;;;;;;0.30;0.30;;;-0.50;97.40;;;;;;5054419;28;20538;-68
2023/01/31 04:35:33;;;;;;;1.60;0.90;;;-0.60;97.70;;;;;;5054517;28;20257;-68
2023/01/31 04:37:59;;;;;;;0.30;0.30;;;-0.50;97.90;;;;;;5054202;28;20296;-68
2023/01/31 04:40:25;;;;;;;0.40;0.40;;;-0.50;97.50;;;;;;5054277;28;20220;-68
2023/01/31 04:42:50;;;;;;;0.50;0.50;;;-0.60;97.20;;;;;;5053390;28;20900;-68
2023/01/31 04:45:16;;;;;;;0.40;0.40;;;-0.70;97.20;;;;;;5054184;28;20208;-68
2023/01/31 04:47:42;;;;;;;0.30;0.30;;;-0.70;97.30;;;;;;5054385;28;20671;-68
2023/01/31 04:50:08;;;;;;;0.40;0.40;;;-0.70;97.70;;;;;;5054052;28;20186;-67
2023/01/31 04:52:34;;;;;;;1.20;1.20;;;-0.70;98.10;;;;;;5052949;28;20170;-68
2023/01/31 04:54:59;;;;;;;1.13;1.13;;;-0.50;98.10;;;;;;5052563;28;20179;-68
2023/01/31 04:57:25;;;;;;;1.53;1.23;;;-0.50;97.60;;;;;;5053546;28;20174;-68
2023/01/31 04:59:51;;;;;;;0.30;0.30;;;-0.50;97.50;;;;;;5052713;28;20267;-68
2023/01/31 05:02:16;;;;;;;0.50;0.50;;;-0.50;97.70;;;;;;5053931;28;20621;-68
2023/01/31 05:04:42;;;;;;;0.53;0.53;;;-0.50;97.80;;;;;;5053924;28;20254;-68
2023/01/31 05:07:08;;;;;;;0.50;0.50;;;-0.50;98.00;;;;;;5054003;28;20784;-67
2023/01/31 05:09:33;;;;;;;0.40;0.40;;;-0.50;99.90;;;;;;5053910;28;20201;-68
2023/01/31 05:11:59;;;;;;;1.03;1.03;;;-0.40;97.10;;;;;;5053570;28;20663;-68
2023/01/31 05:14:25;;;;;;;0.70;0.70;;;-0.40;97.40;;;;;;5052472;28;20652;-68
2023/01/31 05:16:51;;;;;;;0.40;0.40;;;-0.40;97.60;;;;;;5053733;28;20253;-68
2023/01/31 05:19:17;;;;;;;0.50;0.50;;;-0.30;97.90;;;;;;5053540;28;20303;-68
2023/01/31 05:22:03;;;;;;;0.30;0.30;;;-0.30;97.50;;;;;;5053446;28;20261;-68
2023/01/31 05:24:31;;;;;;;0.30;0.30;;;-0.20;97.60;;;;;;5053647;28;20186;-67
2023/01/31 05:26:58;;;;;;;0.30;0.30;;;-0.20;97.60;;;;;;5053523;28;20167;-68
2023/01/31 05:29:25;;;;;;;0.43;0.43;;;-0.10;97.80;;;;;;5053487;28;20162;-68
2023/01/31 05:31:52;;;;;;;0.40;0.40;;;0.00;97.90;;;;;;5053357;28;20660;-68
2023/01/31 05:34:18;;;;;;;0.43;0.43;;;0.00;97.90;;;;;;5053607;28;20648;-68
2023/01/31 05:36:43;;;;;;;0.30;0.30;;;0.10;97.80;;;;;;5053966;28;20305;-68
2023/01/31 05:39:09;;;;;;;0.30;0.30;;;0.10;97.80;;;;;;5053570;28;20204;-68
2023/01/31 05:41:35;;;;;;;0.60;0.60;;;0.20;97.50;;;;;;5053312;28;20198;-68
2023/01/31 05:44:01;;;;;;;0.30;0.30;;;0.20;97.30;;;;;;5053299;28;20170;-68
2023/01/31 05:46:26;;;;;;;0.40;0.40;;;0.20;97.30;;;;;;5053526;28;20913;-68
2023/01/31 05:48:52;;;;;;;3.30;1.50;;;0.20;97.30;;;;;;5053438;28;20250;-68
2023/01/31 05:51:17;;;;;;;0.33;0.33;;;0.30;97.30;;;;;;5053408;28;20728;-67
2023/01/31 05:53:43;;;;;;;0.40;0.40;;;0.30;97.30;;;;;;5053507;28;20185;-68
2023/01/31 05:56:09;;;;;;;1.03;0.77;;;0.30;97.20;;;;;;5057428;28;20174;-68
2023/01/31 05:58:34;;;;;;;0.57;0.57;;;0.30;97.20;;;;;;5057323;28;20205;-70
2023/01/31 06:01:00;;;;;;;0.30;0.30;;;0.30;97.30;;;;;;5057231;28;20201;-71
2023/01/31 06:03:26;;;;;;;0.40;0.40;;;0.40;97.30;;;;;;5057313;28;20200;-70
2023/01/31 06:05:52;;;;;;;0.30;0.30;;;0.40;97.30;;;;;;5057381;28;20178;-68
2023/01/31 06:08:17;;;;;;;1.27;1.13;;;0.40;97.50;;;;;;5057061;28;20257;-68
2023/01/31 06:10:43;;;;;;;0.80;0.80;;;0.50;97.50;;;;;;5057385;28;20664;-68
2023/01/31 06:13:09;;;;;;;0.40;0.40;;;0.50;97.60;;;;;;5056969;28;20251;-68
2023/01/31 06:15:36;;;;;;;0.40;0.40;;;0.60;97.50;;;;;;5057229;28;20172;-70
2023/01/31 06:18:02;;;;;;;0.40;0.40;;;0.70;97.50;;;;;;5057139;28;20191;-68
2023/01/31 06:20:28;;;;;;;0.30;0.30;;;0.70;97.50;;;;;;5055800;28;20197;-68
2023/01/31 06:22:54;;;;;;;2.30;1.07;;;0.70;97.50;;;;;;5056738;28;20168;-69
2023/01/31 06:25:19;;;;;;;0.47;0.47;;;0.70;97.40;;;;;;5056886;28;20406;-68
2023/01/31 06:27:45;;;;;;;0.40;0.40;;;0.70;97.40;;;;;;5056921;28;20179;-68
2023/01/31 06:30:11;;;;;;;0.60;0.60;;;0.70;97.40;;;;;;5056879;28;20233;-67
2023/01/31 06:32:37;;;;;;;8.48;3.13;;;0.70;97.30;;;;;;5056559;28;20174;-70
2023/01/31 06:35:03;;;;;;;0.50;0.50;;;0.70;97.30;;;;;;5056833;28;20574;-68
2023/01/31 06:37:28;;;;;;;0.30;0.30;;;0.80;98.80;;;;;;5056409;28;20219;-70
2023/01/31 06:39:54;;;;;;;0.40;0.40;;;1.90;99.90;;;;;;5056511;28;20194;-71
2023/01/31 06:42:20;;;;;;;1.57;0.70;;;3.10;99.90;;;;;;5056415;28;20176;-64
2023/01/31 06:44:45;;;;;;;1.17;1.10;;;4.20;99.90;;;;;;5056397;28;20174;-68
2023/01/31 06:47:11;;;;;;;0.93;0.93;;;4.80;97.50;;;;;;5056424;28;20173;-69
2023/01/31 06:49:38;;;;;;;0.50;0.50;;;4.60;93.50;;;;;;5056440;28;20232;-69
2023/01/31 06:52:04;;;;;;;0.40;0.40;;;4.20;91.50;;;;;;5056160;28;20172;-68
2023/01/31 06:54:29;;;;;;;2.10;2.00;;;3.60;91.70;;;;;;5056543;28;20699;-68
2023/01/31 06:56:55;;;;;;;0.40;0.40;;;3.10;92.20;;;;;;5056256;28;20439;-68
2023/01/31 06:59:21;;;;;;;0.50;0.50;;;2.40;97.60;;;;;;5056305;28;20201;-68
2023/01/31 07:01:46;;;;;;;0.97;0.60;;;2.30;93.40;;;;;;5056058;28;20166;-69
2023/01/31 07:04:12;;;;;;;1.70;0.90;;;2.10;94.00;;;;;;5056255;28;20166;-69
2023/01/31 07:06:37;;;;;;;0.40;0.40;;;2.00;94.40;;;;;;5055314;28;20529;-69
2023/01/31 07:09:03;;;;;;;0.40;0.40;;;1.90;94.80;;;;;;5056067;28;20180;-69
2023/01/31 07:11:29;;;;;;;0.67;0.60;;;1.80;95.10;;;;;;5056067;28;20201;-68
2023/01/31 07:13:55;;;;;;;0.37;0.37;;;1.70;95.40;;;;;;5055859;28;20400;-69
2023/01/31 07:16:22;;;;;;;1.13;1.13;;;2.30;96.00;;;;;;5055843;28;20563;-68
2023/01/31 07:18:52;;;;;;;0.47;0.47;;;1.50;96.10;;;;;;5055963;28;20651;-68
2023/01/31 07:21:17;;;;;;;0.30;0.30;;;1.60;96.50;;;;;;5055841;28;20197;-68
2023/01/31 07:23:44;;;;;;;1.33;1.17;;;1.50;96.70;;;;;;5055668;28;20165;-69
2023/01/31 07:26:10;;;;;;;0.40;0.40;;;1.50;96.60;;;;;;5055738;28;20211;-69
2023/01/31 07:28:35;;;;;;;4.17;2.50;;;1.50;96.60;;;;;;5055540;28;20173;-69
2023/01/31 07:31:11;;;;;;;0.68;0.68;;;1.50;96.70;;;;;;5054358;28;20271;-69
2023/01/31 07:33:37;;;;;;;1.80;1.35;;;1.40;97.00;;;;;;5055407;28;20237;-69
2023/01/31 07:36:03;;;;;;;3.92;1.50;;;1.50;97.30;;;;;;5055683;28;20179;-68
2023/01/31 07:38:30;;;;;;;1.05;1.05;;;1.50;97.60;;;;;;5055369;28;20213;-69
2023/01/31 07:41:03;;;;;;;0.60;0.60;;;1.60;97.40;;;;;;5054246;28;20671;-69
2023/01/31 07:43:30;;;;;;;4.85;2.17;;;1.60;97.20;;;;;;5055482;28;20208;-68
2023/01/31 07:45:56;;;;;;;0.60;0.60;;;1.70;97.20;;;;;;5055501;28;20185;-69
2023/01/31 07:48:22;;;;;;;0.40;0.40;;;1.80;97.40;;;;;;5055497;28;20279;-69
2023/01/31 07:50:56;;;;;;;1.33;1.23;;;1.80;97.40;;;;;;5055408;28;20284;-68
2023/01/31 07:53:22;;;;;;;0.65;0.65;;;1.80;97.20;;;;;;5053711;28;20461;-69
2023/01/31 07:55:47;;;;;;;0.30;0.30;;;1.80;97.10;;;;;;5053664;28;20209;-70
2023/01/31 07:58:16;;;;;;;0.40;0.40;;;1.90;97.30;;;;;;5055140;28;20214;-68
2023/01/31 08:03:32;;;;;;;0.95;0.95;;;2.00;97.50;;;;;;5055269;28;20251;-70
2023/01/31 08:06:02;;;;;;;1.02;1.02;;;2.10;97.60;;;;;;5054986;28;20175;-68
2023/01/31 08:08:27;;;;;;;2.05;1.95;;;2.20;97.50;;;;;;5053679;28;20215;-68
2023/01/31 08:10:53;;;;;;;0.77;0.53;;;2.30;97.40;;;;;;5053124;28;20193;-68
2023/01/31 08:13:19;;;;;;;0.60;0.60;;;2.30;97.10;;;;;;5054427;28;20661;-68
2023/01/31 08:15:44;;;;;;;5.03;2.07;;;2.30;97.00;;;;;;5054746;28;20177;-68
2023/01/31 08:18:10;;;;;;;0.40;0.40;;;2.40;97.20;;;;;;5053656;28;20189;-68
2023/01/31 08:20:40;;;;;;;1.47;1.37;;;2.50;97.30;;;;;;5054720;28;20658;-68
2023/01/31 08:23:05;;;;;;;1.77;1.50;;;2.60;97.30;;;;;;5054451;28;20162;-69
2023/01/31 08:25:31;;;;;;;1.00;0.97;;;2.60;97.30;;;;;;5054764;28;20694;-68
2023/01/31 08:27:57;;;;;;;0.70;0.70;;;2.70;97.20;;;;;;5054794;28;20198;-69
2023/01/31 08:30:23;;;;;;;0.93;0.93;;;2.80;96.80;;;;;;5054416;28;20205;-68
2023/01/31 08:32:48;;;;;;;0.73;0.73;;;2.90;96.70;;;;;;5054510;28;20227;-68
2023/01/31 08:35:14;;;;;;;2.73;1.90;;;3.00;96.60;;;;;;5054755;28;20224;-69
2023/01/31 08:37:39;;;;;;;0.77;0.77;;;3.10;96.50;;;;;;5054328;28;20188;-68
2023/01/31 08:40:06;;;;;;;0.40;0.40;;;3.30;96.50;;;;;;5054475;28;20208;-68
2023/01/31 08:42:31;;;;;;;0.40;0.40;;;3.30;96.00;;;;;;5054031;28;20166;-68
2023/01/31 08:44:57;;;;;;;1.07;0.70;;;3.40;96.20;;;;;;5054460;28;20243;-68
2023/01/31 08:47:23;;;;;;;2.37;2.27;;;3.50;96.10;;;;;;5054414;28;20159;-68
2023/01/31 08:49:49;;;;;;;0.40;0.40;;;3.50;95.90;;;;;;5054139;28;20240;-68
2023/01/31 08:52:15;;;;;;;1.13;1.02;;;3.60;96.00;;;;;;5053751;28;20170;-69
2023/01/31 08:54:40;;;;;;;1.03;1.03;;;3.80;95.80;;;;;;5051410;28;20178;-68
2023/01/31 08:57:06;;;;;;;1.83;1.73;;;3.80;95.40;;;;;;5053121;28;20174;-70
2023/01/31 08:59:32;;;;;;;3.47;3.17;;;3.80;98.40;;;;;;5053575;28;20194;-68
2023/01/31 09:01:57;;;;;;;0.40;0.40;;;3.90;95.50;;;;;;5051747;28;20194;-69
2023/01/31 09:04:23;;;;;;;0.40;0.40;;;4.10;95.40;;;;;;5054079;28;20524;-68
2023/01/31 09:06:48;;;;;;;1.03;0.90;;;4.20;95.20;;;;;;5053994;28;20166;-68
2023/01/31 09:09:14;;;;;;;2.00;1.90;;;4.20;94.60;;;;;;5053768;28;20177;-68
2023/01/31 09:11:40;;;;;;;0.87;0.87;;;4.40;94.70;;;;;;5053553;28;20204;-71
2023/01/31 09:14:05;;;;;;;0.60;0.60;;;4.50;94.30;;;;;;5054158;28;20174;-70
2023/01/31 09:16:31;;;;;;;0.87;0.87;;;4.60;94.20;;;;;;5053967;28;20257;-70
2023/01/31 09:18:57;;;;;;;0.77;0.77;;;4.90;94.20;;;;;;5054027;28;20198;-70
2023/01/31 09:21:23;;;;;;;3.60;2.40;;;5.30;94.10;;;;;;5054137;28;20186;-71
2023/01/31 09:23:55;;;;;;;1.33;1.23;;;6.10;94.10;;;;;;5053626;28;20623;-69
2023/01/31 09:26:20;;;;;;;0.40;0.40;;;7.70;91.90;;;;;;5053889;28;20175;-69
2023/01/31 09:28:46;;;;;;;0.70;0.70;;;9.10;87.70;;;;;;5053579;28;20526;-69
2023/01/31 09:31:16;;;;;;;1.30;1.20;;;9.70;82.70;;;;;;5053134;28;20193;-69
2023/01/31 09:33:42;;;;;;;0.85;0.85;;;9.50;78.70;;;;;;5053488;28;20174;-70
2023/01/31 09:36:13;;;;;;;0.82;0.82;;;9.00;78.40;;;;;;5053311;28;20178;-69
2023/01/31 09:38:40;;;;;;;1.48;1.38;;;8.60;80.10;;;;;;5053418;28;20205;-68
2023/01/31 09:41:30;;;;;;;0.68;0.68;;;8.30;81.60;;;;;;5051876;28;20261;-69
2023/01/31 09:44:09;;;;;;;0.50;0.50;;;8.20;82.30;;;;;;5053136;28;20190;-69
2023/01/31 09:46:38;;;;;;;0.80;0.80;;;8.90;82.80;;;;;;5052577;28;20174;-69
2023/01/31 09:49:09;;;;;;;0.65;0.65;;;9.30;79.50;;;;;;5053742;28;20197;-69
2023/01/31 09:51:37;;;;;;;0.40;0.40;;;9.70;78.80;;;;;;5053211;28;20259;-69
2023/01/31 09:54:09;;;;;;;0.60;0.60;;;9.50;76.70;;;;;;5053205;28;20174;-69
2023/01/31 09:56:49;;;;;;;1.15;1.15;;;9.00;77.60;;;;;;5053831;28;20249;-69
2023/01/31 09:59:31;;;;;;;1.95;1.85;;;8.70;77.90;;;;;;5053343;28;20211;-69
2023/01/31 10:02:12;;;;;;;0.85;0.85;;;8.10;78.20;;;;;;5053064;28;20212;-69
2023/01/31 10:05:14;;;;;;;1.63;1.50;;;7.80;80.30;;;;;;5053514;28;20166;-68
2023/01/31 10:07:52;;;;;;;0.40;0.40;;;7.50;80.90;;;;;;5053157;28;20256;-69
2023/01/31 10:10:40;;;;;;;0.82;0.77;;;7.40;82.00;;;;;;5053445;28;20525;-68
2023/01/31 10:13:22;;;;;;;0.55;0.55;;;7.40;82.60;;;;;;5053091;28;20564;-69
2023/01/31 10:16:03;;;;;;;1.40;1.40;;;7.50;83.20;;;;;;5053340;28;20555;-69
2023/01/31 10:18:33;;;;;;;0.60;0.60;;;7.60;83.20;;;;;;5053148;28;20205;-69
2023/01/31 10:21:18;;;;;;;0.80;0.60;;;8.10;84.00;;;;;;5053587;28;20221;-69
2023/01/31 10:23:48;;;;;;;0.45;0.45;;;8.80;82.10;;;;;;5053455;28;20228;-71
2023/01/31 10:26:27;;;;;;;0.73;0.73;;;9.30;79.40;;;;;;5053616;28;20620;-69
2023/01/31 10:29:01;;;;;;;0.67;0.67;;;9.80;79.30;;;;;;5053183;28;20181;-68
2023/01/31 10:31:31;;;;;;;1.00;1.00;;;10.80;75.50;;;;;;5052656;28;20925;-69
2023/01/31 10:34:25;;;;;;;0.67;0.67;;;11.40;71.40;;;;;;5052892;28;20413;-69
2023/01/31 10:36:59;;;;;;;0.40;0.40;;;12.10;69.60;;;;;;5052853;28;20929;-69
2023/01/31 10:39:45;;;;;;;0.90;0.60;;;12.80;66.10;;;;;;5052700;28;20480;-69
2023/01/31 10:42:26;;;;;;;6.13;1.40;;;12.90;62.70;;;;;;5055460;28;20907;-69
2023/01/31 10:44:54;;;;;;;0.63;0.63;;;12.60;61.90;;;;;;5056821;28;20393;-69
2023/01/31 10:47:26;;;;;;;3.07;1.23;;;12.70;61.10;;;;;;5056622;28;20467;-69
2023/01/31 10:49:52;;;;;;;0.60;0.60;;;12.30;60.60;;;;;;5056572;28;20424;-69
2023/01/31 10:52:34;;;;;;;3.43;3.23;;;11.40;61.60;;;;;;5056394;28;20416;-69
2023/01/31 10:55:36;;;;;;;7.63;1.55;;;9.80;65.30;;;;;;5056612;28;20166;-68
2023/01/31 10:58:02;;;;;;;2.50;2.40;;;8.90;70.50;;;;;;5054948;28;20224;-69
2023/01/31 11:00:31;;;;;;;0.40;0.40;;;8.50;73.40;;;;;;5056333;28;20623;-70
2023/01/31 11:02:57;;;;;;;0.98;0.93;;;8.30;74.90;;;;;;5056144;28;20612;-68
2023/01/31 11:05:26;;;;;;;0.40;0.40;;;8.10;76.50;;;;;;5056418;28;20171;-68
2023/01/31 11:07:52;;;;;;;0.95;0.95;;;7.90;76.50;;;;;;5056316;28;20178;-68
2023/01/31 11:10:29;;;;;;;0.70;0.70;;;7.70;77.30;;;;;;5056130;28;20271;-70
2023/01/31 11:13:00;;;;;;;0.55;0.50;;;7.40;79.10;;;;;;5055833;28;20417;-70
2023/01/31 11:15:28;;;;;;;2.90;0.80;;;7.30;78.40;;;;;;5056325;28;20580;-68
2023/01/31 11:17:58;;;;;;;3.92;1.58;;;7.00;79.30;;;;;;5055760;28;20346;-68
2023/01/31 11:20:32;;;;;;;0.40;0.40;;;6.70;81.00;;;;;;5056332;28;20720;-70
2023/01/31 11:23:01;;;;;;;0.82;0.82;;;6.60;81.70;;;;;;5055960;28;20168;-70
2023/01/31 11:25:29;;;;;;;0.60;0.60;;;6.80;81.50;;;;;;5055755;28;20661;-68
2023/01/31 11:28:02;;;;;;;3.83;1.65;;;7.00;82.00;;;;;;5056172;28;20178;-69
2023/01/31 11:30:31;;;;;;;1.67;1.17;;;7.00;81.30;;;;;;5055697;28;20204;-69
2023/01/31 11:32:57;;;;;;;0.50;0.50;;;7.00;81.90;;;;;;5055333;28;20174;-69
2023/01/31 11:35:26;;;;;;;1.27;1.17;;;6.60;81.90;;;;;;5055868;28;20198;-70
2023/01/31 11:38:00;;;;;;;0.30;0.30;;;6.50;83.90;;;;;;5055664;28;20454;-68
2023/01/31 11:40:35;;;;;;;0.75;0.75;;;6.50;82.90;;;;;;5055332;28;20220;-68
2023/01/31 11:43:04;;;;;;;0.70;0.70;;;6.20;83.50;;;;;;5055388;28;20173;-68
2023/01/31 11:45:37;;;;;;;0.45;0.45;;;6.20;84.80;;;;;;5054034;28;20219;-68
2023/01/31 11:48:21;;;;;;;0.50;0.50;;;6.30;86.00;;;;;;5053219;28;20200;-69
2023/01/31 11:50:55;;;;;;;0.50;0.50;;;6.40;85.40;;;;;;5054395;28;20341;-69
2023/01/31 11:53:27;;;;;;;4.55;2.88;;;6.50;86.30;;;;;;5054848;28;20160;-69
2023/01/31 11:55:59;;;;;;;0.63;0.57;;;6.70;84.80;;;;;;5055868;28;20716;-70
2023/01/31 11:58:35;;;;;;;0.50;0.50;;;6.80;85.70;;;;;;5055342;28;20205;-69
2023/01/31 12:01:05;;;;;;;0.88;0.88;;;7.00;85.70;;;;;;5055466;28;20552;-70
2023/01/31 12:03:31;;;;;;;1.15;1.15;;;7.20;84.30;;;;;;5055321;28;20178;-70
2023/01/31 12:06:04;;;;;;;0.70;0.70;;;7.20;82.20;;;;;;5055469;28;20266;-70
2023/01/31 12:08:35;;;;;;;0.40;0.40;;;7.40;83.30;;;;;;5055604;28;20181;-70
2023/01/31 12:11:28;;;;;;;0.50;0.50;;;7.40;82.70;;;;;;5055019;28;20220;-70
2023/01/31 12:14:00;;;;;;;0.65;0.65;;;7.10;81.60;;;;;;5053432;28;20212;-70
2023/01/31 12:16:28;;;;;;;2.35;2.15;;;6.80;82.10;;;;;;5054142;28;20624;-70
2023/01/31 12:19:06;;;;;;;0.88;0.88;;;6.60;83.20;;;;;;5055270;28;20219;-70
2023/01/31 12:21:44;;;;;;;1.15;1.05;;;6.40;84.70;;;;;;5055115;28;20178;-70
2023/01/31 12:24:38;;;;;;;0.93;0.93;;;6.30;85.50;;;;;;5055043;28;20176;-70
2023/01/31 12:27:33;;;;;;;13.07;1.77;;;6.50;85.90;;;;;;5055267;28;20620;-70
2023/01/31 12:30:17;;;;;;;0.70;0.70;;;6.50;85.80;;;;;;5054703;28;20241;-70
2023/01/31 12:33:04;;;;;;;0.40;0.40;;;6.50;84.80;;;;;;5054569;28;20200;-70
2023/01/31 12:35:58;;;;;;;0.60;0.60;;;6.50;85.80;;;;;;5054896;28;20183;-70
2023/01/31 12:38:52;;;;;;;0.60;0.60;;;6.00;85.80;;;;;;5054490;28;20207;-70
2023/01/31 12:41:26;;;;;;;0.40;0.40;;;5.90;87.00;;;;;;5053323;28;20598;-70
2023/01/31 12:44:15;;;;;;;1.77;1.35;;;5.80;86.90;;;;;;5053710;28;20637;-70
2023/01/31 12:47:11;;;;;;;2.38;1.65;;;5.90;88.00;;;;;;5054510;28;20166;-70
2023/01/31 12:49:46;;;;;;;0.52;0.52;;;6.00;92.70;;;;;;5054606;28;20174;-70
2023/01/31 12:52:19;;;;;;;0.43;0.43;;;6.00;86.90;;;;;;5054542;28;20169;-70
2023/01/31 12:54:54;;;;;;;0.50;0.50;;;6.10;87.50;;;;;;5054415;28;20527;-70
2023/01/31 12:57:32;;;;;;;0.88;0.88;;;6.10;86.30;;;;;;5054415;28;20175;-70
2023/01/31 13:00:08;;;;;;;0.40;0.40;;;6.00;86.30;;;;;;5054172;28;20212;-70
2023/01/31 13:02:55;;;;;;;0.50;0.50;;;5.70;86.60;;;;;;5054218;28;20653;-72
2023/01/31 13:05:54;;;;;;;3.22;0.73;;;5.30;88.40;;;;;;5052434;28;20684;-68
2023/01/31 13:08:24;;;;;;;0.40;0.40;;;5.00;90.00;;;;;;5054012;28;20542;-68
2023/01/31 13:11:21;;;;;;;1.10;0.70;;;5.00;90.20;;;;;;5054563;28;20589;-68
2023/01/31 13:13:48;;;;;;;1.08;1.08;;;4.90;90.50;;;;;;5053696;28;20162;-69
2023/01/31 13:16:24;;;;;;;5.38;0.73;;;5.00;90.40;;;;;;5054055;28;20204;-70
2023/01/31 13:18:53;;;;;;;0.70;0.70;;;5.00;90.30;;;;;;5053714;28;20677;-69
2023/01/31 13:21:28;;;;;;;0.40;0.40;;;5.10;90.50;;;;;;5052446;28;20611;-69
2023/01/31 13:24:08;;;;;;;4.97;1.15;;;5.10;90.80;;;;;;5053517;28;20165;-69
2023/01/31 13:26:39;;;;;;;1.50;1.48;;;5.10;90.80;;;;;;5053852;28;20253;-70